PWSweather.com
Personal Weather Stations
Station Observations
UISISLE1
Newport, Isle ofWight, ISLE OF WIGHT PO30 2JX

NewportIsle ofWight, ISLE OF WIGHT PO30 2JX

Lat: 50.72, Lon: -1.27

Elevation: 45

Station Type: Davis Vantage Pro Plus

http://www.isleofwightweather.co.uk

High Low Average
Temperature 76.0°F24.4°F 50.1°F10.1°F 64.1°F17.8°F
Dew Point 62.0°F16.7°F 47.6°F8.7°F 55.2°F12.9°F
Winds 9.0 mph ESE14.5 mph ESE Calm Calm 2.8 mph 4.5 mph
Wind Gusts 17.0 mph27.4 mph -- 5.8 mph9.3 mph
Humidity 96% 57% 74%
Pressure 30.26 in1024.70 in 30.10 in1019.30 in -
Precipitation 0.00 in0.00 in - -
Hour Temp Dew Point Humidity Winds Wind Gusts Pressure Precip Precip Rate Daily Precip Total
12:00 AM 54.3°F12.4°C 50.5°F10.3°C 87% Calm Calm -- 30.26 in1024.7 mb - 0.00 in0.0 mm 0.00 in0.0 mm
12:15 AM 54.0°F12.2°C 50.5°F10.3°C 88% Calm Calm -- 30.26 in1024.7 mb - 0.00 in0.0 mm 0.00 in0.0 mm
12:30 AM 53.6°F12.0°C 50.1°F10.1°C 88% Calm Calm -- 30.26 in1024.7 mb - 0.00 in0.0 mm 0.00 in0.0 mm
12:45 AM 53.4°F11.9°C 49.9°F9.9°C 88% Calm Calm -- 30.25 in1024.4 mb - 0.00 in0.0 mm 0.00 in0.0 mm
01:00 AM 53.1°F11.7°C 49.6°F9.8°C 88% Calm Calm -- 30.25 in1024.4 mb - 0.00 in0.0 mm 0.00 in0.0 mm
01:15 AM 52.8°F11.6°C 49.6°F9.8°C 89% Calm Calm -- 30.25 in1024.4 mb - 0.00 in0.0 mm 0.00 in0.0 mm
01:30 AM 52.5°F11.4°C 49.3°F9.6°C 89% Calm Calm -- 30.25 in1024.4 mb - 0.00 in0.0 mm 0.00 in0.0 mm
01:45 AM 52.2°F11.2°C 49.1°F9.5°C 89% Calm Calm -- 30.24 in1024.0 mb - 0.00 in0.0 mm 0.00 in0.0 mm
02:00 AM 51.9°F11.1°C 48.8°F9.3°C 89% Calm Calm -- 30.24 in1024.0 mb - 0.00 in0.0 mm 0.00 in0.0 mm
02:15 AM 51.7°F10.9°C 48.6°F9.2°C 89% Calm Calm -- 30.24 in1024.0 mb - 0.00 in0.0 mm 0.00 in0.0 mm
02:30 AM 51.5°F10.8°C 48.4°F9.1°C 89% Calm Calm -- 30.24 in1024.0 mb - 0.00 in0.0 mm 0.00 in0.0 mm
02:45 AM 51.4°F10.8°C 48.6°F9.2°C 90% Calm Calm -- 30.24 in1024.0 mb - 0.00 in0.0 mm 0.00 in0.0 mm
03:00 AM 51.2°F10.7°C 48.4°F9.1°C 90% Calm Calm -- 30.24 in1024.0 mb - 0.00 in0.0 mm 0.00 in0.0 mm
03:15 AM 50.9°F10.5°C 48.1°F8.9°C 90% Calm Calm -- 30.24 in1024.0 mb - 0.00 in0.0 mm 0.00 in0.0 mm
03:30 AM 50.6°F10.3°C 47.8°F8.8°C 90% Calm Calm -- 30.24 in1024.0 mb - 0.00 in0.0 mm 0.00 in0.0 mm
03:45 AM 50.4°F10.2°C 47.9°F8.8°C 91% Calm Calm -- 30.23 in1023.7 mb - 0.00 in0.0 mm 0.00 in0.0 mm
04:00 AM 50.3°F10.2°C 47.8°F8.8°C 91% Calm Calm -- 30.24 in1024.0 mb - 0.00 in0.0 mm 0.00 in0.0 mm
04:15 AM 50.2°F10.1°C 47.7°F8.7°C 91% Calm Calm -- 30.24 in1024.0 mb - 0.00 in0.0 mm 0.00 in0.0 mm
04:30 AM 50.1°F10.1°C 47.6°F8.7°C 91% Calm Calm -- 30.24 in1024.0 mb - 0.00 in0.0 mm 0.00 in0.0 mm
04:45 AM 50.1°F10.1°C 47.6°F8.7°C 91% Calm Calm -- 30.24 in1024.0 mb - 0.00 in0.0 mm 0.00 in0.0 mm
05:00 AM 50.2°F10.1°C 48.0°F8.9°C 92% Calm Calm -- 30.24 in1024.0 mb - 0.00 in0.0 mm 0.00 in0.0 mm
05:15 AM 50.5°F10.3°C 48.3°F9.1°C 92% Calm Calm -- 30.24 in1024.0 mb - 0.00 in0.0 mm 0.00 in0.0 mm
05:30 AM 50.9°F10.5°C 48.7°F9.3°C 92% Calm Calm -- 30.25 in1024.4 mb - 0.00 in0.0 mm 0.00 in0.0 mm
05:45 AM 51.5°F10.8°C 49.5°F9.7°C 93% Calm Calm -- 30.25 in1024.4 mb - 0.00 in0.0 mm 0.00 in0.0 mm
06:00 AM 52.5°F11.4°C 50.8°F10.4°C 94% Calm Calm 1.0 mph1.6 kmh 30.25 in1024.4 mb - 0.00 in0.0 mm 0.00 in0.0 mm
06:15 AM 54.3°F12.4°C 52.9°F11.6°C 95% 0.4 mph E0.6 kmh E 2.0 mph3.2 kmh 30.25 in1024.4 mb - 0.00 in0.0 mm 0.00 in0.0 mm
06:30 AM 56.4°F13.6°C 55.0°F12.8°C 95% 1.0 mph ENE1.6 kmh ENE 4.0 mph6.4 kmh 30.25 in1024.4 mb - 0.00 in0.0 mm 0.00 in0.0 mm
06:45 AM 57.8°F14.3°C 56.4°F13.6°C 95% 2.2 mph ENE3.5 kmh ENE 5.0 mph8.0 kmh 30.25 in1024.4 mb - 0.00 in0.0 mm 0.00 in0.0 mm
07:00 AM 58.7°F14.8°C 57.6°F14.2°C 96% 2.0 mph ESE3.2 kmh ESE 8.0 mph12.9 kmh 30.26 in1024.7 mb - 0.00 in0.0 mm 0.00 in0.0 mm
07:15 AM 59.5°F15.3°C 58.1°F14.5°C 95% 0.7 mph N1.1 kmh N 4.0 mph6.4 kmh 30.26 in1024.7 mb - 0.00 in0.0 mm 0.00 in0.0 mm
07:30 AM 60.2°F15.7°C 58.8°F14.9°C 95% 5.6 mph ENE9.0 kmh ENE 9.0 mph14.5 kmh 30.26 in1024.7 mb - 0.00 in0.0 mm 0.00 in0.0 mm
07:45 AM 61.5°F16.4°C 59.8°F15.4°C 94% 3.4 mph E5.5 kmh E 8.0 mph12.9 kmh 30.26 in1024.7 mb - 0.00 in0.0 mm 0.00 in0.0 mm
08:00 AM 63.4°F17.4°C 60.4°F15.8°C 90% 5.5 mph SE8.9 kmh SE 8.0 mph12.9 kmh 30.26 in1024.7 mb - 0.00 in0.0 mm 0.00 in0.0 mm
08:15 AM 65.4°F18.6°C 60.1°F15.6°C 83% 2.4 mph E3.9 kmh E 7.0 mph11.3 kmh 30.26 in1024.7 mb - 0.00 in0.0 mm 0.00 in0.0 mm
08:30 AM 67.1°F19.5°C 60.0°F15.6°C 78% 4.6 mph SE7.4 kmh SE 7.0 mph11.3 kmh 30.25 in1024.4 mb - 0.00 in0.0 mm 0.00 in0.0 mm
08:45 AM 68.6°F20.3°C 60.0°F15.6°C 74% 3.8 mph E6.1 kmh E 9.0 mph14.5 kmh 30.25 in1024.4 mb - 0.00 in0.0 mm 0.00 in0.0 mm
09:00 AM 70.0°F21.1°C 60.9°F16.1°C 73% 3.9 mph SSE6.3 kmh SSE 9.0 mph14.5 kmh 30.25 in1024.4 mb - 0.00 in0.0 mm 0.00 in0.0 mm
09:15 AM 71.5°F21.9°C 61.2°F16.2°C 70% 2.2 mph ESE3.5 kmh ESE 8.0 mph12.9 kmh 30.25 in1024.4 mb - 0.00 in0.0 mm 0.00 in0.0 mm
09:30 AM 72.2°F22.3°C 60.6°F15.9°C 67% 3.6 mph SSE5.8 kmh SSE 7.0 mph11.3 kmh 30.25 in1024.4 mb - 0.00 in0.0 mm 0.00 in0.0 mm
09:45 AM 73.1°F22.8°C 61.1°F16.2°C 66% 2.0 mph ENE3.2 kmh ENE 8.0 mph12.9 kmh 30.25 in1024.4 mb - 0.00 in0.0 mm 0.00 in0.0 mm
10:00 AM 73.3°F22.9°C 61.2°F16.2°C 66% 6.4 mph E10.3 kmh E 11.0 mph17.7 kmh 30.25 in1024.4 mb - 0.00 in0.0 mm 0.00 in0.0 mm
10:15 AM 73.1°F22.8°C 61.1°F16.2°C 66% 6.2 mph E10.0 kmh E 8.0 mph12.9 kmh 30.24 in1024.0 mb - 0.00 in0.0 mm 0.00 in0.0 mm
10:30 AM 72.3°F22.4°C 60.3°F15.7°C 66% 6.2 mph ENE10.0 kmh ENE 11.0 mph17.7 kmh 30.24 in1024.0 mb - 0.00 in0.0 mm 0.00 in0.0 mm
10:45 AM 71.9°F22.2°C 60.0°F15.6°C 66% 5.7 mph ESE9.2 kmh ESE 11.0 mph17.7 kmh 30.23 in1023.7 mb - 0.00 in0.0 mm 0.00 in0.0 mm
11:00 AM 72.3°F22.4°C 59.9°F15.5°C 65% 7.2 mph SE11.6 kmh SE 13.0 mph20.9 kmh 30.23 in1023.7 mb - 0.00 in0.0 mm 0.00 in0.0 mm
11:15 AM 73.2°F22.9°C 60.3°F15.7°C 64% 3.1 mph SSE5.0 kmh SSE 8.0 mph12.9 kmh 30.22 in1023.4 mb - 0.00 in0.0 mm 0.00 in0.0 mm
11:30 AM 73.6°F23.1°C 60.2°F15.7°C 63% 4.5 mph ESE7.2 kmh ESE 14.0 mph22.5 kmh 30.22 in1023.4 mb - 0.00 in0.0 mm 0.00 in0.0 mm
11:45 AM 74.0°F23.3°C 60.2°F15.7°C 62% 5.2 mph SE8.4 kmh SE 10.0 mph16.1 kmh 30.21 in1023.0 mb - 0.00 in0.0 mm 0.00 in0.0 mm
12:00 PM 74.6°F23.7°C 60.2°F15.7°C 61% 6.4 mph E10.3 kmh E 10.0 mph16.1 kmh 30.21 in1023.0 mb - 0.00 in0.0 mm 0.00 in0.0 mm
12:15 PM 74.7°F23.7°C 60.4°F15.8°C 61% 3.1 mph E5.0 kmh E 8.0 mph12.9 kmh 30.21 in1023.0 mb - 0.00 in0.0 mm 0.00 in0.0 mm
12:30 PM 75.0°F23.9°C 61.0°F16.1°C 62% 6.4 mph E10.3 kmh E 12.0 mph19.3 kmh 30.21 in1023.0 mb - 0.00 in0.0 mm 0.00 in0.0 mm
01:00 PM 74.9°F23.8°C 60.5°F15.8°C 61% 6.8 mph E10.9 kmh E 13.0 mph20.9 kmh 30.20 in1022.7 mb - 0.00 in0.0 mm 0.00 in0.0 mm
01:15 PM 74.6°F23.7°C 60.3°F15.7°C 61% 7.3 mph E11.7 kmh E 10.0 mph16.1 kmh 30.20 in1022.7 mb - 0.00 in0.0 mm 0.00 in0.0 mm
01:30 PM 75.1°F23.9°C 61.2°F16.2°C 62% 5.9 mph E9.5 kmh E 10.0 mph16.1 kmh 30.20 in1022.7 mb - 0.00 in0.0 mm 0.00 in0.0 mm
01:45 PM 75.5°F24.2°C 62.0°F16.7°C 63% 7.0 mph SE11.3 kmh SE 12.0 mph19.3 kmh 30.19 in1022.4 mb - 0.00 in0.0 mm 0.00 in0.0 mm
02:00 PM 76.0°F24.4°C 61.6°F16.4°C 61% 4.5 mph SE7.2 kmh SE 13.0 mph20.9 kmh 30.19 in1022.4 mb - 0.00 in0.0 mm 0.00 in0.0 mm
02:15 PM 75.9°F24.4°C 61.5°F16.4°C 61% 6.7 mph S10.8 kmh S 11.0 mph17.7 kmh 30.18 in1022.0 mb - 0.00 in0.0 mm 0.00 in0.0 mm
02:30 PM 75.2°F24.0°C 60.9°F16.1°C 61% 5.2 mph SE8.4 kmh SE 16.0 mph25.7 kmh 30.18 in1022.0 mb - 0.00 in0.0 mm 0.00 in0.0 mm
02:45 PM 74.7°F23.7°C 60.8°F16.0°C 62% 5.7 mph E9.2 kmh E 12.0 mph19.3 kmh 30.18 in1022.0 mb - 0.00 in0.0 mm 0.00 in0.0 mm
03:00 PM 74.5°F23.6°C 60.2°F15.7°C 61% 5.6 mph E9.0 kmh E 12.0 mph19.3 kmh 30.17 in1021.7 mb - 0.00 in0.0 mm 0.00 in0.0 mm
03:15 PM 74.8°F23.8°C 59.5°F15.3°C 59% 7.0 mph ESE11.3 kmh ESE 10.0 mph16.1 kmh 30.16 in1021.3 mb - 0.00 in0.0 mm 0.00 in0.0 mm
03:30 PM 74.7°F23.7°C 59.4°F15.2°C 59% 5.7 mph ESE9.2 kmh ESE 10.0 mph16.1 kmh 30.16 in1021.3 mb - 0.00 in0.0 mm 0.00 in0.0 mm
03:45 PM 73.9°F23.3°C 58.2°F14.6°C 58% 9.0 mph ESE14.5 kmh ESE 17.0 mph27.4 kmh 30.16 in1021.3 mb - 0.00 in0.0 mm 0.00 in0.0 mm
04:00 PM 72.7°F22.6°C 57.5°F14.2°C 59% 4.2 mph SE6.8 kmh SE 6.0 mph9.7 kmh 30.16 in1021.3 mb - 0.00 in0.0 mm 0.00 in0.0 mm
04:15 PM 72.0°F22.2°C 56.9°F13.8°C 59% 8.8 mph ENE14.2 kmh ENE 14.0 mph22.5 kmh 30.15 in1021.0 mb - 0.00 in0.0 mm 0.00 in0.0 mm
04:30 PM 71.6°F22.0°C 57.4°F14.1°C 61% 1.0 mph ESE1.6 kmh ESE 6.0 mph9.7 kmh 30.14 in1020.7 mb - 0.00 in0.0 mm 0.00 in0.0 mm
04:45 PM 71.5°F21.9°C 56.5°F13.6°C 59% 6.2 mph E10.0 kmh E 11.0 mph17.7 kmh 30.14 in1020.7 mb - 0.00 in0.0 mm 0.00 in0.0 mm
05:00 PM 71.4°F21.9°C 56.3°F13.5°C 59% 2.4 mph ENE3.9 kmh ENE 9.0 mph14.5 kmh 30.13 in1020.3 mb - 0.00 in0.0 mm 0.00 in0.0 mm
05:15 PM 71.3°F21.8°C 55.8°F13.2°C 58% 3.2 mph SSE5.1 kmh SSE 3.0 mph4.8 kmh 30.13 in1020.3 mb - 0.00 in0.0 mm 0.00 in0.0 mm
05:30 PM 71.2°F21.8°C 55.7°F13.2°C 58% 5.4 mph E8.7 kmh E 9.0 mph14.5 kmh 30.13 in1020.3 mb - 0.00 in0.0 mm 0.00 in0.0 mm
05:45 PM 70.9°F21.6°C 55.4°F13.0°C 58% 5.0 mph SE8.0 kmh SE 7.0 mph11.3 kmh 30.13 in1020.3 mb - 0.00 in0.0 mm 0.00 in0.0 mm
06:00 PM 70.7°F21.5°C 55.7°F13.2°C 59% 3.5 mph E5.6 kmh E 7.0 mph11.3 kmh 30.12 in1020.0 mb - 0.00 in0.0 mm 0.00 in0.0 mm
06:15 PM 70.8°F21.6°C 56.2°F13.4°C 60% 4.1 mph ESE6.6 kmh ESE 6.0 mph9.7 kmh 30.11 in1019.6 mb - 0.00 in0.0 mm 0.00 in0.0 mm
06:30 PM 71.3°F21.8°C 56.2°F13.4°C 59% 3.1 mph SE5.0 kmh SE 8.0 mph12.9 kmh 30.11 in1019.6 mb - 0.00 in0.0 mm 0.00 in0.0 mm
06:45 PM 71.6°F22.0°C 56.5°F13.6°C 59% 2.6 mph ESE4.2 kmh ESE 3.0 mph4.8 kmh 30.11 in1019.6 mb - 0.00 in0.0 mm 0.00 in0.0 mm
07:00 PM 71.8°F22.1°C 56.7°F13.7°C 59% 2.0 mph E3.2 kmh E 5.0 mph8.0 kmh 30.11 in1019.6 mb - 0.00 in0.0 mm 0.00 in0.0 mm
07:15 PM 71.7°F22.1°C 56.6°F13.7°C 59% 3.4 mph E5.5 kmh E 5.0 mph8.0 kmh 30.11 in1019.6 mb - 0.00 in0.0 mm 0.00 in0.0 mm
07:30 PM 71.0°F21.7°C 55.0°F12.8°C 57% 3.7 mph E6.0 kmh E 8.0 mph12.9 kmh 30.12 in1020.0 mb - 0.00 in0.0 mm 0.00 in0.0 mm
07:45 PM 69.8°F21.0°C 53.9°F12.2°C 57% 0.4 mph ESE0.6 kmh ESE 2.0 mph3.2 kmh 30.12 in1020.0 mb - 0.00 in0.0 mm 0.00 in0.0 mm
08:00 PM 68.5°F20.3°C 54.1°F12.3°C 60% 0.7 mph E1.1 kmh E 3.0 mph4.8 kmh 30.12 in1020.0 mb - 0.00 in0.0 mm 0.00 in0.0 mm
08:15 PM 66.9°F19.4°C 53.0°F11.7°C 61% 0.9 mph ESE1.4 kmh ESE 4.0 mph6.4 kmh 30.12 in1020.0 mb - 0.00 in0.0 mm 0.00 in0.0 mm
08:30 PM 65.2°F18.4°C 52.7°F11.5°C 64% 2.3 mph E3.7 kmh E 6.0 mph9.7 kmh 30.12 in1020.0 mb - 0.00 in0.0 mm 0.00 in0.0 mm
08:45 PM 63.7°F17.6°C 52.5°F11.4°C 67% 1.4 mph E2.3 kmh E 4.0 mph6.4 kmh 30.12 in1020.0 mb - 0.00 in0.0 mm 0.00 in0.0 mm
09:00 PM 62.5°F16.9°C 52.2°F11.2°C 69% 3.8 mph ENE6.1 kmh ENE 6.0 mph9.7 kmh 30.12 in1020.0 mb - 0.00 in0.0 mm 0.00 in0.0 mm
09:15 PM 61.8°F16.6°C 52.7°F11.5°C 72% 1.8 mph ESE2.9 kmh ESE 6.0 mph9.7 kmh 30.12 in1020.0 mb - 0.00 in0.0 mm 0.00 in0.0 mm
09:30 PM 61.4°F16.3°C 52.7°F11.5°C 73% 2.4 mph SE3.9 kmh SE 6.0 mph9.7 kmh 30.12 in1020.0 mb - 0.00 in0.0 mm 0.00 in0.0 mm
09:45 PM 61.2°F16.2°C 52.8°F11.6°C 74% 3.0 mph SE4.8 kmh SE 7.0 mph11.3 kmh 30.12 in1020.0 mb - 0.00 in0.0 mm 0.00 in0.0 mm
10:00 PM 61.1°F16.2°C 53.1°F11.7°C 75% 1.1 mph SE1.8 kmh SE 4.0 mph6.4 kmh 30.12 in1020.0 mb - 0.00 in0.0 mm 0.00 in0.0 mm
10:15 PM 60.9°F16.1°C 53.3°F11.8°C 76% 1.4 mph E2.3 kmh E 5.0 mph8.0 kmh 30.11 in1019.6 mb - 0.00 in0.0 mm 0.00 in0.0 mm
10:30 PM 60.7°F15.9°C 53.4°F11.9°C 77% 1.2 mph E1.9 kmh E 3.0 mph4.8 kmh 30.11 in1019.6 mb - 0.00 in0.0 mm 0.00 in0.0 mm
10:45 PM 60.4°F15.8°C 53.9°F12.2°C 79% 1.4 mph E2.3 kmh E 3.0 mph4.8 kmh 30.11 in1019.6 mb - 0.00 in0.0 mm 0.00 in0.0 mm
11:00 PM 60.1°F15.6°C 53.6°F12.0°C 79% 2.5 mph E4.0 kmh E 6.0 mph9.7 kmh 30.11 in1019.6 mb - 0.00 in0.0 mm 0.00 in0.0 mm
11:15 PM 59.8°F15.4°C 53.3°F11.8°C 79% 2.6 mph E4.2 kmh E 5.0 mph8.0 kmh 30.11 in1019.6 mb - 0.00 in0.0 mm 0.00 in0.0 mm
11:30 PM 59.7°F15.4°C 52.8°F11.6°C 78% 2.0 mph ENE3.2 kmh ENE 3.0 mph4.8 kmh 30.10 in1019.3 mb - 0.00 in0.0 mm 0.00 in0.0 mm
11:45 PM 59.6°F15.3°C 52.7°F11.5°C 78% 1.1 mph E1.8 kmh E 5.0 mph8.0 kmh 30.11 in1019.6 mb - 0.00 in0.0 mm 0.00 in0.0 mm